createdAt,value
2022-07-25T00:00:47.619Z,3.70
2022-07-25T00:06:13.029Z,3.90
2022-07-25T00:11:35.354Z,4.53
2022-07-25T00:16:57.764Z,3.87
2022-07-25T00:22:19.973Z,4.12
2022-07-25T00:27:42.819Z,3.80
2022-07-25T00:33:05.243Z,4.30
2022-07-25T00:38:27.933Z,4.28
2022-07-25T00:43:51.319Z,4.47
2022-07-25T00:49:14.241Z,4.25
2022-07-25T00:54:37.284Z,4.30
2022-07-25T00:59:59.708Z,4.37
2022-07-25T01:05:24.808Z,4.60
2022-07-25T01:10:49.706Z,4.20
2022-07-25T01:16:12.359Z,4.10
2022-07-25T01:21:36.787Z,4.42
2022-07-25T01:26:59.084Z,4.17
2022-07-25T01:32:21.613Z,4.67
2022-07-25T01:37:45.541Z,4.73
2022-07-25T01:43:08.249Z,4.53
2022-07-25T01:48:31.416Z,4.10
2022-07-25T01:53:53.790Z,4.37
2022-07-25T01:59:16.167Z,4.15
2022-07-25T02:04:38.589Z,4.10
2022-07-25T02:10:00.913Z,4.33
2022-07-25T02:15:23.971Z,4.17
2022-07-25T02:20:46.389Z,4.60
2022-07-25T02:26:09.943Z,4.90
2022-07-25T02:31:32.292Z,5.22
2022-07-25T02:36:54.514Z,4.23
2022-07-25T02:42:16.957Z,4.80
2022-07-25T02:47:40.811Z,5.00
2022-07-25T02:53:03.263Z,5.28
2022-07-25T02:58:25.646Z,5.30
2022-07-25T03:03:48.126Z,5.35
2022-07-25T03:09:10.812Z,4.83
2022-07-25T03:14:33.148Z,5.50
2022-07-25T03:19:57.044Z,4.40
2022-07-25T03:25:23.201Z,5.08
2022-07-25T03:30:45.627Z,4.60
2022-07-25T03:36:08.006Z,4.15
2022-07-25T03:41:31.048Z,4.17
2022-07-25T03:46:53.683Z,4.28
2022-07-25T03:52:16.045Z,4.28
2022-07-25T03:57:38.508Z,4.30
2022-07-25T04:03:00.734Z,4.12
2022-07-25T04:08:23.729Z,4.50
2022-07-25T04:13:46.098Z,4.95
2022-07-25T04:19:08.901Z,5.17
2022-07-25T04:24:31.202Z,5.20
2022-07-25T04:29:53.502Z,5.80
2022-07-25T04:35:19.891Z,5.80
2022-07-25T04:40:43.134Z,6.37
2022-07-25T04:46:05.555Z,6.03
2022-07-25T04:51:28.740Z,6.67
2022-07-25T04:56:51.312Z,7.00
2022-07-25T05:02:14.902Z,6.78
2022-07-25T05:07:37.421Z,6.03
2022-07-25T05:12:59.811Z,6.72
2022-07-25T05:18:22.762Z,5.83
2022-07-25T05:23:46.185Z,5.10
2022-07-25T05:29:08.999Z,5.15
2022-07-25T05:34:31.733Z,5.00
2022-07-25T05:39:54.076Z,4.10
2022-07-25T05:45:19.597Z,4.67
2022-07-25T05:50:44.366Z,4.45
2022-07-25T05:56:07.842Z,4.33
2022-07-25T06:01:34.818Z,3.60
2022-07-25T06:06:58.351Z,3.20
2022-07-25T06:12:21.237Z,3.50
2022-07-25T06:17:46.015Z,3.00
2022-07-25T06:23:08.540Z,2.87
2022-07-25T06:28:31.455Z,2.75
2022-07-25T06:33:54.055Z,3.15
2022-07-25T06:39:17.634Z,3.58
2022-07-25T06:44:41.616Z,3.30
2022-07-25T06:50:04.065Z,3.55
2022-07-25T06:55:29.899Z,3.02
2022-07-25T07:00:53.031Z,3.05
2022-07-25T07:06:15.669Z,2.75
2022-07-25T07:11:37.885Z,3.17
2022-07-25T07:17:00.367Z,2.90
2022-07-25T07:22:23.388Z,2.85
2022-07-25T07:27:46.747Z,3.30
2022-07-25T07:33:09.492Z,2.62
2022-07-25T07:38:32.894Z,2.20
2022-07-25T07:43:55.639Z,2.50
2022-07-25T07:49:18.879Z,2.20
2022-07-25T07:54:59.518Z,2.27
2022-07-25T08:00:23.552Z,2.27
2022-07-25T08:05:52.749Z,2.15
2022-07-25T08:11:15.177Z,2.25
2022-07-25T08:16:37.478Z,2.10
2022-07-25T08:22:00.707Z,1.90
2022-07-25T08:27:22.997Z,1.95
2022-07-25T08:32:58.553Z,1.90
2022-07-25T08:38:23.277Z,1.60
2022-07-25T08:43:47.676Z,1.87
2022-07-25T08:49:10.891Z,2.02
2022-07-25T08:54:33.852Z,1.90
2022-07-25T08:59:56.784Z,1.80
2022-07-25T09:05:20.478Z,1.80
2022-07-25T09:10:49.204Z,2.20
2022-07-25T09:16:13.282Z,1.62
2022-07-25T09:21:37.544Z,1.90
2022-07-25T09:27:12.610Z,2.40
2022-07-25T09:32:36.604Z,1.90
2022-07-25T09:37:59.065Z,1.70
2022-07-25T09:43:21.343Z,2.17
2022-07-25T09:48:45.731Z,2.47
2022-07-25T09:54:13.078Z,2.52
2022-07-25T09:59:35.391Z,1.90
2022-07-25T10:05:08.992Z,2.30
2022-07-25T10:10:47.188Z,1.80
2022-07-25T10:16:23.024Z,1.80
2022-07-25T10:21:45.777Z,1.70
2022-07-25T10:27:23.465Z,1.70
2022-07-25T10:32:48.202Z,1.70
2022-07-25T10:38:12.820Z,1.80
2022-07-25T10:43:44.613Z,1.50
2022-07-25T10:49:12.878Z,1.60
2022-07-25T10:54:40.232Z,1.57
2022-07-25T11:00:05.181Z,1.60
2022-07-25T11:05:30.256Z,1.50
2022-07-25T11:10:54.455Z,2.00
2022-07-25T11:16:18.133Z,1.82
2022-07-25T11:21:42.336Z,1.60
2022-07-25T11:27:12.156Z,1.70
2022-07-25T11:32:33.051Z,1.85
2022-07-25T11:37:58.494Z,1.87
2022-07-25T11:43:27.055Z,1.52
2022-07-25T11:48:56.911Z,1.40
2022-07-25T11:54:21.906Z,1.30
2022-07-25T11:59:50.300Z,1.40
2022-07-25T12:05:20.536Z,1.53
2022-07-25T12:10:52.804Z,11.93
2022-07-25T12:16:17.664Z,1.50
2022-07-25T12:21:41.543Z,1.70
2022-07-25T12:27:04.308Z,1.22
2022-07-25T12:32:26.621Z,1.50
2022-07-25T12:37:50.084Z,1.32
2022-07-25T12:43:13.671Z,1.25
2022-07-25T12:48:35.960Z,1.20
2022-07-25T12:53:58.183Z,1.15
2022-07-25T12:59:22.239Z,1.30
2022-07-25T13:04:44.696Z,1.30
2022-07-25T13:10:07.204Z,1.20
2022-07-25T13:15:30.749Z,0.98
2022-07-25T13:20:54.961Z,1.25
2022-07-25T13:26:27.436Z,1.20
2022-07-25T13:31:50.658Z,1.30
2022-07-25T13:37:13.813Z,1.50
2022-07-25T13:42:36.313Z,1.20
2022-07-25T13:48:18.935Z,1.10
2022-07-25T13:59:04.751Z,1.50
2022-07-25T14:04:27.938Z,1.20
2022-07-25T14:09:51.043Z,1.40
2022-07-25T14:20:50.488Z,1.10
2022-07-25T14:26:14.823Z,1.20
2022-07-25T14:31:39.187Z,1.30
2022-07-25T14:37:01.711Z,1.30
2022-07-25T14:42:24.106Z,1.27
2022-07-25T14:47:48.323Z,1.20
2022-07-25T14:53:11.183Z,1.53
2022-07-25T14:58:34.375Z,1.40
2022-07-25T15:03:57.391Z,1.30
2022-07-25T15:09:20.898Z,1.30
2022-07-25T15:14:44.431Z,1.15
2022-07-25T15:20:06.662Z,1.20
2022-07-25T15:26:00.631Z,1.20
2022-07-25T15:30:53.146Z,1.32
2022-07-25T15:36:15.503Z,1.10
2022-07-25T15:41:38.669Z,1.17
2022-07-25T15:47:01.251Z,1.32
2022-07-25T15:52:25.409Z,1.20
2022-07-25T15:57:48.597Z,1.17
2022-07-25T16:03:12.538Z,1.20
2022-07-25T16:08:35.451Z,1.20
2022-07-25T16:13:57.742Z,1.20
2022-07-25T16:19:19.994Z,1.32
2022-07-25T16:24:43.087Z,1.50
2022-07-25T16:30:05.689Z,1.40
2022-07-25T16:35:28.171Z,1.20
2022-07-25T16:40:50.357Z,1.50
2022-07-25T16:46:13.683Z,1.40
2022-07-25T16:51:37.293Z,1.12
2022-07-25T16:57:00.031Z,1.40
2022-07-25T17:02:27.522Z,1.92
2022-07-25T17:07:46.901Z,1.47
2022-07-25T17:13:09.735Z,1.47
2022-07-25T17:18:32.632Z,1.60
2022-07-25T17:23:56.624Z,1.40
2022-07-25T17:29:19.459Z,1.60
2022-07-25T17:34:41.965Z,1.27
2022-07-25T17:40:05.392Z,1.40
2022-07-25T17:45:28.584Z,1.70
2022-07-25T17:50:52.652Z,2.08
2022-07-25T17:56:15.956Z,1.20
2022-07-25T18:01:38.329Z,1.37
2022-07-25T18:07:00.732Z,1.60
2022-07-25T18:12:29.068Z,1.70
2022-07-25T18:17:48.825Z,2.10
2022-07-25T18:23:24.784Z,1.30
2022-07-25T18:28:48.476Z,1.67
2022-07-25T18:34:11.758Z,1.73
2022-07-25T18:39:34.653Z,1.60
2022-07-25T18:44:56.845Z,1.62
2022-07-25T18:55:52.166Z,2.07
2022-07-25T19:01:14.478Z,1.63
2022-07-25T19:06:36.948Z,1.73
2022-07-25T19:12:01.380Z,1.63
2022-07-25T19:17:24.955Z,3.40
2022-07-25T19:22:48.282Z,1.93
2022-07-25T19:28:10.883Z,2.00
2022-07-25T19:33:35.939Z,2.70
2022-07-25T19:38:57.512Z,1.82
2022-07-25T19:44:21.121Z,3.20
2022-07-25T19:49:43.594Z,2.90
2022-07-25T19:55:06.004Z,2.47
2022-07-25T20:00:28.762Z,2.40
2022-07-25T20:05:51.257Z,2.30
2022-07-25T20:11:13.986Z,3.67
2022-07-25T20:16:39.053Z,3.10
2022-07-25T20:22:02.545Z,3.22
2022-07-25T20:27:24.899Z,2.30
2022-07-25T20:32:47.349Z,2.22
2022-07-25T20:38:10.433Z,2.50
2022-07-25T20:43:33.547Z,2.35
2022-07-25T20:48:55.938Z,2.33
2022-07-25T20:54:19.044Z,2.22
2022-07-25T20:59:41.287Z,2.30
2022-07-25T21:05:03.551Z,2.17
2022-07-25T21:10:27.630Z,2.37
2022-07-25T21:15:52.126Z,2.33
2022-07-25T21:21:18.032Z,2.70
2022-07-25T21:26:43.098Z,2.70
2022-07-25T21:32:05.474Z,2.58
2022-07-25T21:37:28.579Z,2.50
2022-07-25T21:42:50.743Z,2.17
2022-07-25T21:48:13.396Z,2.13
2022-07-25T21:53:35.552Z,2.58
2022-07-25T21:58:57.742Z,2.25
2022-07-25T22:04:21.422Z,2.40
2022-07-25T22:09:44.292Z,2.80
2022-07-25T22:15:06.893Z,2.40
2022-07-25T22:20:31.934Z,2.50
2022-07-25T22:25:54.573Z,2.55
2022-07-25T22:31:17.244Z,2.90
2022-07-25T22:36:40.050Z,2.70
2022-07-25T22:42:02.922Z,2.47
2022-07-25T22:47:25.629Z,2.42
2022-07-25T22:52:48.953Z,2.60
2022-07-25T22:58:11.773Z,2.40
2022-07-25T23:03:34.716Z,2.95
2022-07-25T23:08:58.554Z,2.30
2022-07-25T23:14:21.410Z,2.58
2022-07-25T23:19:44.055Z,2.33
2022-07-25T23:25:09.427Z,2.70
2022-07-25T23:30:38.002Z,2.47
2022-07-25T23:35:57.241Z,2.60
2022-07-25T23:41:19.596Z,2.65
2022-07-25T23:46:43.017Z,2.50
2022-07-25T23:52:07.811Z,2.92
2022-07-25T23:57:30.654Z,2.57
